Time;durP1;ratioP1;P1;durP2;ratioP2;P2;SDS_P1;SDS_P2;PMS_P1;PMS_P2;Temp;Humidity;BMP_temperature;BMP_pressure;BME280_temperature;BME280_humidity;BME280_pressure;Samples;Min_cycle;Max_cycle;Signal;HPM_P1;HPM_P2
2023/09/23 00:00:02;;;;;;;1.30;0.87;;;;;23.30;99623.00;;;;2590827;22;20187;-59
2023/09/23 00:01:05;;;;;;;0.70;0.43;;;;;23.30;99625.00;;;;2590353;22;22699;-60
2023/09/23 00:02:09;;;;;;;2.17;0.73;;;;;23.30;99624.00;;;;2573724;22;20206;-59
2023/09/23 00:03:10;;;;;;;0.90;0.60;;;;;23.30;99624.00;;;;2589134;22;20199;-59
2023/09/23 00:04:10;;;;;;;1.07;0.70;;;;;23.30;99630.00;;;;2590234;22;20199;-59
2023/09/23 00:05:11;;;;;;;1.07;0.60;;;;;23.30;99636.00;;;;2589971;22;20200;-59
2023/09/23 00:06:12;;;;;;;1.27;0.50;;;;;23.30;99639.00;;;;2575364;22;20268;-59
2023/09/23 00:07:12;;;;;;;1.03;0.57;;;;;23.30;99641.00;;;;2588291;22;20199;-59
2023/09/23 00:08:12;;;;;;;1.07;0.70;;;;;23.30;99640.00;;;;2589233;22;20206;-59
2023/09/23 00:09:16;;;;;;;1.27;0.70;;;;;23.30;99648.00;;;;2588938;22;20254;-59
2023/09/23 00:10:17;;;;;;;1.10;0.70;;;;;23.30;99637.00;;;;2572513;22;20195;-59
2023/09/23 00:11:18;;;;;;;1.30;0.70;;;;;23.30;99645.00;;;;2575808;22;20226;-60
2023/09/23 00:12:18;;;;;;;1.20;0.83;;;;;23.30;99647.00;;;;2590558;22;20618;-59
2023/09/23 00:13:20;;;;;;;0.93;0.60;;;;;23.30;99646.00;;;;2590680;22;20441;-59
2023/09/23 00:14:21;;;;;;;0.95;0.55;;;;;23.30;99648.00;;;;2589632;22;20215;-59
2023/09/23 00:15:21;;;;;;;1.27;0.60;;;;;23.30;99647.00;;;;2589788;22;20191;-59
2023/09/23 00:16:22;;;;;;;0.80;0.60;;;;;23.30;99647.00;;;;2574938;22;20194;-60
2023/09/23 00:17:22;;;;;;;0.80;0.50;;;;;23.30;99645.00;;;;2602220;22;20634;-59
2023/09/23 00:18:23;;;;;;;1.03;0.70;;;;;23.30;99647.00;;;;2588803;22;20191;-61
2023/09/23 00:19:23;;;;;;;1.20;0.67;;;;;23.30;99641.00;;;;2588454;22;20195;-59
2023/09/23 00:20:27;;;;;;;0.90;0.53;;;;;23.30;99647.00;;;;2583925;22;20192;-59
2023/09/23 00:21:27;;;;;;;1.00;0.63;;;;;23.30;99651.00;;;;2572450;22;20266;-59
2023/09/23 00:22:27;;;;;;;1.10;0.60;;;;;23.30;99651.00;;;;2589808;22;20603;-59
2023/09/23 00:23:28;;;;;;;0.80;0.50;;;;;23.30;99654.00;;;;2597361;22;20568;-59
2023/09/23 00:24:28;;;;;;;0.70;0.50;;;;;23.30;99650.00;;;;2590688;22;20222;-59
2023/09/23 00:25:28;;;;;;;1.83;0.83;;;;;23.30;99654.00;;;;2588083;22;20210;-59
2023/09/23 00:26:29;;;;;;;1.63;0.70;;;;;23.30;99653.00;;;;2575647;22;20188;-59
2023/09/23 00:27:30;;;;;;;0.97;0.60;;;;;23.30;99650.00;;;;2589712;22;20195;-59
2023/09/23 00:28:30;;;;;;;0.83;0.60;;;;;23.20;99649.00;;;;2590357;22;20192;-60
2023/09/23 00:29:31;;;;;;;1.00;0.67;;;;;23.30;99655.00;;;;2588539;22;20203;-59
2023/09/23 00:30:32;;;;;;;1.10;0.73;;;;;23.30;99661.00;;;;2588636;22;20219;-59
2023/09/23 00:31:33;;;;;;;1.58;0.60;;;;;23.30;99658.00;;;;2576373;22;20200;-60
2023/09/23 00:32:33;;;;;;;1.00;0.50;;;;;23.20;99656.00;;;;2589492;22;20200;-59
2023/09/23 00:33:36;;;;;;;1.67;0.80;;;;;23.30;99662.00;;;;2590565;22;20486;-59
2023/09/23 00:34:37;;;;;;;1.10;0.90;;;;;23.20;99665.00;;;;2590660;22;20203;-59
2023/09/23 00:35:39;;;;;;;1.38;0.65;;;;;23.30;99664.00;;;;2590361;22;20188;-59
2023/09/23 00:36:39;;;;;;;0.90;0.60;;;;;23.20;99671.00;;;;2576709;22;20518;-59
2023/09/23 00:37:40;;;;;;;1.10;0.80;;;;;23.30;99673.00;;;;2588056;22;20194;-59
2023/09/23 00:38:40;;;;;;;1.33;0.80;;;;;23.20;99667.00;;;;2590203;22;20218;-59
2023/09/23 00:39:41;;;;;;;1.20;0.70;;;;;23.30;99675.00;;;;2588657;22;20192;-59
2023/09/23 00:40:44;;;;;;;0.90;0.60;;;;;23.30;99671.00;;;;2590231;22;20895;-59
2023/09/23 00:41:44;;;;;;;1.15;0.70;;;;;23.20;99674.00;;;;2571249;22;20187;-59
2023/09/23 00:42:47;;;;;;;1.30;0.60;;;;;23.20;99695.00;;;;2587982;22;20195;-59
2023/09/23 00:43:48;;;;;;;1.10;0.60;;;;;23.20;99675.00;;;;2590184;22;20199;-59
2023/09/23 00:44:48;;;;;;;0.90;0.60;;;;;23.20;99685.00;;;;2590247;22;20195;-59
2023/09/23 00:45:49;;;;;;;1.00;0.70;;;;;23.30;99683.00;;;;2589683;22;20689;-59
2023/09/23 00:46:49;;;;;;;1.33;0.90;;;;;23.30;99688.00;;;;2553791;22;20195;-58
2023/09/23 00:47:50;;;;;;;0.90;0.70;;;;;23.20;99683.00;;;;2583926;22;20979;-59
2023/09/23 00:48:50;;;;;;;1.07;0.63;;;;;23.30;99657.00;;;;2589083;22;20699;-59
2023/09/23 00:49:50;;;;;;;1.40;0.70;;;;;23.20;99682.00;;;;2586317;22;20206;-58
2023/09/23 00:50:53;;;;;;;0.90;0.60;;;;;23.20;99683.00;;;;2589456;22;20195;-59
2023/09/23 00:51:53;;;;;;;1.00;0.70;;;;;23.20;99684.00;;;;2571657;22;20199;-59
2023/09/23 00:52:53;;;;;;;0.80;0.57;;;;;23.20;99695.00;;;;2588483;22;20219;-59
2023/09/23 00:53:54;;;;;;;1.07;0.70;;;;;23.20;99691.00;;;;2589896;22;20225;-59
2023/09/23 00:54:55;;;;;;;1.03;0.70;;;;;23.20;99695.00;;;;2590717;22;20248;-59
2023/09/23 00:55:57;;;;;;;1.57;0.90;;;;;23.20;99696.00;;;;2587205;22;20191;-60
2023/09/23 00:57:00;;;;;;;1.10;0.80;;;;;23.20;99689.00;;;;2561807;22;20199;-60
2023/09/23 00:58:00;;;;;;;1.00;0.60;;;;;23.20;99699.00;;;;2587200;22;20195;-60
2023/09/23 00:59:01;;;;;;;1.10;0.70;;;;;23.20;99710.00;;;;2589772;22;20708;-59
2023/09/23 01:00:03;;;;;;;1.60;0.70;;;;;23.20;99702.00;;;;2591020;22;20195;-59
2023/09/23 01:01:07;;;;;;;0.90;0.70;;;;;23.20;99709.00;;;;2577556;22;20251;-60
2023/09/23 01:02:07;;;;;;;1.10;0.80;;;;;23.20;99711.00;;;;2563107;22;20228;-60
2023/09/23 01:03:07;;;;;;;0.83;0.60;;;;;23.20;99709.00;;;;2575196;22;20206;-60
2023/09/23 01:04:14;;;;;;;1.10;0.67;;;;;23.20;99697.00;;;;2590666;22;24682;-60
2023/09/23 01:05:16;;;;;;;1.20;0.70;;;;;23.20;99713.00;;;;2590883;22;20203;-60
2023/09/23 01:06:18;;;;;;;1.30;0.70;;;;;23.20;99711.00;;;;2576060;22;20270;-60
2023/09/23 01:07:18;;;;;;;1.48;0.73;;;;;23.20;99714.00;;;;2589701;22;20263;-60
2023/09/23 01:08:20;;;;;;;1.00;0.60;;;;;23.20;99711.00;;;;2590359;22;20619;-63
2023/09/23 01:09:21;;;;;;;1.00;0.60;;;;;23.20;99716.00;;;;2587139;22;20202;-59
2023/09/23 01:10:23;;;;;;;0.90;0.68;;;;;23.20;99690.00;;;;2588318;22;20249;-60
2023/09/23 01:11:25;;;;;;;0.90;0.60;;;;;23.20;99710.00;;;;2574999;22;20196;-59
2023/09/23 01:12:26;;;;;;;1.52;0.80;;;;;23.20;99724.00;;;;2590752;22;20270;-60
2023/09/23 01:13:29;;;;;;;0.90;0.80;;;;;23.20;99717.00;;;;2589761;22;20203;-59
2023/09/23 01:14:30;;;;;;;1.25;0.70;;;;;23.20;99722.00;;;;2587988;22;20288;-60
2023/09/23 01:15:32;;;;;;;0.93;0.60;;;;;23.20;99712.00;;;;2590238;22;20914;-59
2023/09/23 01:16:33;;;;;;;1.15;0.70;;;;;23.20;99721.00;;;;2576105;22;20270;-60
2023/09/23 01:17:33;;;;;;;0.90;0.63;;;;;23.20;99712.00;;;;2588544;22;20192;-60
2023/09/23 01:18:35;;;;;;;1.00;0.67;;;;;23.20;99712.00;;;;2586515;22;20192;-59
2023/09/23 01:19:35;;;;;;;1.17;0.60;;;;;23.20;99710.00;;;;2589991;22;20235;-60
2023/09/23 01:20:37;;;;;;;1.03;0.73;;;;;23.20;99729.00;;;;2589046;22;20192;-60
2023/09/23 01:21:38;;;;;;;1.10;0.70;;;;;23.20;99732.00;;;;2576113;22;20215;-60
2023/09/23 01:22:39;;;;;;;0.93;0.63;;;;;23.20;99731.00;;;;2590947;22;20226;-59
2023/09/23 01:23:39;;;;;;;1.00;0.63;;;;;23.20;99730.00;;;;2590486;22;20270;-59
2023/09/23 01:24:40;;;;;;;0.80;0.50;;;;;23.20;99726.00;;;;2591057;22;20199;-59
2023/09/23 01:25:40;;;;;;;0.97;0.67;;;;;23.20;99723.00;;;;2590776;22;20207;-60
2023/09/23 01:26:43;;;;;;;1.33;0.70;;;;;23.20;99732.00;;;;2583661;22;20213;-60
2023/09/23 01:27:43;;;;;;;1.05;0.63;;;;;23.20;99736.00;;;;2602940;22;20621;-59
2023/09/23 01:28:45;;;;;;;1.10;0.70;;;;;23.20;99733.00;;;;2595172;22;20188;-60
2023/09/23 01:29:52;;;;;;;1.10;0.75;;;;;23.20;99725.00;;;;2590170;22;20270;-59
2023/09/23 01:30:52;;;;;;;0.95;0.60;;;;;23.20;99731.00;;;;2590222;22;20195;-60
2023/09/23 01:32:03;;;;;;;1.00;0.90;;;;;23.20;99746.00;;;;2576858;22;20187;-59
2023/09/23 01:33:07;;;;;;;1.10;0.80;;;;;23.20;99730.00;;;;2576757;23;20189;-59
2023/09/23 01:34:07;;;;;;;0.90;0.63;;;;;23.20;99738.00;;;;2579881;22;20548;-59
2023/09/23 01:35:09;;;;;;;1.07;0.80;;;;;23.20;99733.00;;;;2590321;22;20200;-60
2023/09/23 01:36:11;;;;;;;0.90;0.70;;;;;23.20;99737.00;;;;2575549;22;20196;-59
2023/09/23 01:37:11;;;;;;;0.90;0.68;;;;;23.20;99671.00;;;;2585516;22;20254;-60
2023/09/23 01:38:15;;;;;;;1.03;0.73;;;;;23.20;99737.00;;;;2590402;22;20571;-60
2023/09/23 01:39:15;;;;;;;0.90;0.68;;;;;23.20;99740.00;;;;2589463;22;20191;-59
2023/09/23 01:40:19;;;;;;;0.90;0.70;;;;;23.20;99748.00;;;;2589016;22;20246;-60
2023/09/23 01:41:19;;;;;;;1.02;0.73;;;;;23.20;99732.00;;;;2574950;22;20195;-59
2023/09/23 01:42:20;;;;;;;1.10;0.93;;;;;23.20;99741.00;;;;2589796;22;20202;-59
2023/09/23 01:43:21;;;;;;;0.90;0.70;;;;;23.20;99745.00;;;;2586440;22;20199;-59
2023/09/23 01:44:21;;;;;;;1.27;0.70;;;;;23.20;99741.00;;;;2589741;22;20549;-60
2023/09/23 01:45:22;;;;;;;0.93;0.63;;;;;23.20;99739.00;;;;2588156;22;20479;-64
2023/09/23 01:46:22;;;;;;;1.03;0.77;;;;;23.20;99742.00;;;;2577151;22;20188;-64
2023/09/23 01:47:23;;;;;;;1.10;0.70;;;;;23.20;99748.00;;;;2588260;22;20194;-64
2023/09/23 01:48:23;;;;;;;0.90;0.73;;;;;23.20;99735.00;;;;2590286;22;20195;-61
2023/09/23 01:49:23;;;;;;;1.07;0.70;;;;;23.20;99737.00;;;;2575666;22;20222;-60
2023/09/23 01:50:24;;;;;;;1.30;0.70;;;;;23.20;99591.00;;;;2589406;22;20196;-60
2023/09/23 01:51:25;;;;;;;1.50;0.70;;;;;23.20;99739.00;;;;2575997;22;20253;-61
2023/09/23 01:52:25;;;;;;;1.17;0.77;;;;;23.20;99743.00;;;;2590523;22;20895;-60
2023/09/23 01:53:27;;;;;;;1.07;0.70;;;;;23.20;99740.00;;;;2589699;22;20560;-60
2023/09/23 01:54:28;;;;;;;1.15;0.80;;;;;23.20;99738.00;;;;2590242;22;20215;-60
2023/09/23 01:55:28;;;;;;;0.97;0.70;;;;;23.20;99742.00;;;;2603079;22;20186;-60
2023/09/23 01:56:30;;;;;;;1.07;0.70;;;;;23.20;99742.00;;;;2576265;22;20196;-60
2023/09/23 01:57:34;;;;;;;1.15;0.85;;;;;23.20;99744.00;;;;2586281;22;20737;-60
2023/09/23 01:58:34;;;;;;;1.10;0.60;;;;;23.20;99737.00;;;;2586247;22;20191;-60
2023/09/23 01:59:34;;;;;;;1.03;0.70;;;;;23.20;99742.00;;;;2589796;22;20187;-59
2023/09/23 02:00:36;;;;;;;1.10;0.60;;;;;23.20;99739.00;;;;2590580;22;20199;-59
2023/09/23 02:01:40;;;;;;;1.25;0.77;;;;;23.20;99739.00;;;;2576635;22;20211;-59
2023/09/23 02:02:42;;;;;;;0.80;0.60;;;;;23.20;99741.00;;;;2589142;22;20203;-58
2023/09/23 02:03:42;;;;;;;1.42;0.70;;;;;23.20;99744.00;;;;2589212;22;20203;-59
2023/09/23 02:04:42;;;;;;;1.10;0.70;;;;;23.20;99740.00;;;;2590560;22;20230;-59
2023/09/23 02:05:43;;;;;;;1.00;0.60;;;;;23.20;99752.00;;;;2589544;22;20203;-58
2023/09/23 02:06:43;;;;;;;1.10;0.70;;;;;23.20;99755.00;;;;2576316;22;20653;-59
2023/09/23 02:07:46;;;;;;;1.00;0.77;;;;;23.20;99751.00;;;;2590877;22;20641;-59
2023/09/23 02:08:46;;;;;;;1.08;0.80;;;;;23.20;99762.00;;;;2586928;22;20254;-59
2023/09/23 02:09:46;;;;;;;1.40;0.67;;;;;23.20;99758.00;;;;2588953;22;20257;-59
2023/09/23 02:10:48;;;;;;;1.03;0.80;;;;;23.20;99765.00;;;;2590685;22;20211;-58
2023/09/23 02:11:49;;;;;;;1.00;0.75;;;;;23.20;99766.00;;;;2575603;22;20187;-58
2023/09/23 02:12:50;;;;;;;1.15;0.85;;;;;23.20;99778.00;;;;2591031;22;20188;-59
2023/09/23 02:13:51;;;;;;;1.00;0.80;;;;;23.20;99781.00;;;;2590967;22;20361;-58
2023/09/23 02:14:53;;;;;;;1.25;0.88;;;;;23.20;99781.00;;;;2590577;22;20192;-59
2023/09/23 02:15:55;;;;;;;1.50;0.93;;;;;23.20;99781.00;;;;2591426;22;20266;-57
2023/09/23 02:16:58;;;;;;;1.00;0.80;;;;;23.20;99781.00;;;;2575906;22;20215;-62
2023/09/23 02:17:59;;;;;;;1.13;0.80;;;;;23.20;99787.00;;;;2589729;22;20577;-59
2023/09/23 02:18:59;;;;;;;0.90;0.77;;;;;23.20;99782.00;;;;2588640;22;20191;-59
2023/09/23 02:19:59;;;;;;;1.10;0.77;;;;;23.20;99794.00;;;;2602749;22;20207;-58
2023/09/23 02:21:00;;;;;;;1.07;0.80;;;;;23.20;99792.00;;;;2600689;22;20190;-59
2023/09/23 02:22:05;;;;;;;2.00;0.63;;;;;23.20;99791.00;;;;2576761;22;20195;-58
2023/09/23 02:23:05;;;;;;;1.27;0.82;;;;;23.20;99789.00;;;;2590391;22;20192;-58
2023/09/23 02:24:06;;;;;;;1.87;1.10;;;;;23.20;99789.00;;;;2588171;22;20226;-58
2023/09/23 02:25:07;;;;;;;1.30;0.90;;;;;23.20;99785.00;;;;2590860;22;20222;-59
2023/09/23 02:26:08;;;;;;;0.98;0.65;;;;;23.20;99793.00;;;;2574039;22;20192;-58
2023/09/23 02:27:08;;;;;;;0.90;0.70;;;;;23.20;99791.00;;;;2586448;22;20191;-58
2023/09/23 02:28:09;;;;;;;0.90;0.67;;;;;23.20;99796.00;;;;2586289;22;20199;-60
2023/09/23 02:29:10;;;;;;;1.50;1.15;;;;;23.20;99788.00;;;;2589796;22;20218;-58
2023/09/23 02:30:10;;;;;;;1.20;0.90;;;;;23.20;99790.00;;;;2590117;22;20199;-57
2023/09/23 02:31:11;;;;;;;1.27;0.87;;;;;23.20;99800.00;;;;2562941;23;20666;-58
2023/09/23 02:32:12;;;;;;;1.23;0.93;;;;;23.20;99803.00;;;;2590201;22;20559;-58
2023/09/23 02:33:12;;;;;;;0.80;0.57;;;;;23.20;99795.00;;;;2590604;22;21017;-57
2023/09/23 02:34:16;;;;;;;1.00;0.70;;;;;23.20;99788.00;;;;2591095;22;20535;-59
2023/09/23 02:35:17;;;;;;;1.02;0.80;;;;;23.20;99805.00;;;;2589509;22;20195;-58
2023/09/23 02:36:17;;;;;;;1.00;0.77;;;;;23.20;99801.00;;;;2576006;22;20230;-60
2023/09/23 02:37:18;;;;;;;1.43;1.10;;;;;23.20;99804.00;;;;2590742;22;20203;-58
2023/09/23 02:38:19;;;;;;;0.93;0.60;;;;;23.20;99793.00;;;;2589634;22;20715;-57
2023/09/23 02:39:20;;;;;;;3.50;0.77;;;;;23.20;99800.00;;;;2589705;22;20215;-58
2023/09/23 02:40:20;;;;;;;1.20;0.90;;;;;23.20;99800.00;;;;2580976;22;20763;-59
2023/09/23 02:41:22;;;;;;;1.03;0.80;;;;;23.20;99812.00;;;;2570987;22;20215;-58
2023/09/23 02:42:22;;;;;;;1.30;0.82;;;;;23.20;99799.00;;;;2583094;22;20206;-58
2023/09/23 02:43:22;;;;;;;1.20;1.00;;;;;23.20;99791.00;;;;2590760;22;20630;-57
2023/09/23 02:44:24;;;;;;;1.80;1.00;;;;;23.20;99795.00;;;;2587055;22;20191;-58
2023/09/23 02:45:25;;;;;;;1.20;0.82;;;;;23.10;99797.00;;;;2590086;22;20207;-58
2023/09/23 02:46:26;;;;;;;1.17;0.90;;;;;23.20;99791.00;;;;2573861;22;20199;-58
2023/09/23 02:47:26;;;;;;;1.20;0.73;;;;;23.10;99798.00;;;;2588884;22;20539;-58
2023/09/23 02:48:27;;;;;;;1.30;0.90;;;;;23.20;99803.00;;;;2590447;22;20215;-58
2023/09/23 02:49:27;;;;;;;1.13;0.77;;;;;23.20;99800.00;;;;2588142;22;20195;-59
2023/09/23 02:50:27;;;;;;;1.00;0.67;;;;;23.20;99806.00;;;;2589606;22;20680;-58
2023/09/23 02:51:28;;;;;;;1.07;0.70;;;;;23.20;99805.00;;;;2575513;22;20198;-59
2023/09/23 02:52:28;;;;;;;1.20;0.90;;;;;23.20;99803.00;;;;2601807;22;20194;-59
2023/09/23 02:53:30;;;;;;;1.07;0.73;;;;;23.20;99805.00;;;;2587740;22;20211;-59
2023/09/23 02:54:30;;;;;;;1.40;0.90;;;;;23.10;99809.00;;;;2562171;22;20732;-58
2023/09/23 02:55:31;;;;;;;1.37;0.80;;;;;23.20;99838.00;;;;2590399;22;20191;-58
2023/09/23 02:56:35;;;;;;;1.10;0.90;;;;;23.20;99808.00;;;;2576255;22;20196;-58
2023/09/23 02:57:36;;;;;;;1.27;0.70;;;;;23.20;99805.00;;;;2590034;22;20195;-58
2023/09/23 02:58:38;;;;;;;1.00;0.80;;;;;23.10;99803.00;;;;2585197;22;20211;-57
2023/09/23 02:59:41;;;;;;;0.98;0.80;;;;;23.10;99804.00;;;;2588934;22;20476;-58
2023/09/23 03:00:51;;;;;;;2.97;1.10;;;;;23.20;99808.00;;;;2584984;22;20656;-58
2023/09/23 03:01:53;;;;;;;1.13;0.98;;;;;23.20;99818.00;;;;2573322;22;20207;-58
2023/09/23 03:02:54;;;;;;;1.00;0.80;;;;;23.20;99810.00;;;;2596512;22;20270;-58
2023/09/23 03:03:56;;;;;;;1.00;0.70;;;;;23.10;99811.00;;;;2587361;22;20252;-59
2023/09/23 03:04:58;;;;;;;1.30;0.80;;;;;23.10;99818.00;;;;2589987;22;20210;-58
2023/09/23 03:06:02;;;;;;;1.90;1.15;;;;;23.20;99809.00;;;;2587225;22;20668;-58
2023/09/23 03:07:04;;;;;;;1.10;0.70;;;;;23.20;99812.00;;;;2574465;22;20286;-58
2023/09/23 03:08:07;;;;;;;0.95;0.60;;;;;23.10;99813.00;;;;2589434;22;20711;-58
2023/09/23 03:09:10;;;;;;;1.00;0.80;;;;;23.20;99823.00;;;;2588681;22;20261;-58
2023/09/23 03:10:13;;;;;;;1.55;0.90;;;;;23.20;99822.00;;;;2589669;22;20880;-58
2023/09/23 03:11:18;;;;;;;1.20;0.90;;;;;23.10;99820.00;;;;2577120;22;20187;-59
2023/09/23 03:12:19;;;;;;;0.90;0.60;;;;;23.10;99820.00;;;;2589166;22;20195;-58
2023/09/23 03:13:20;;;;;;;1.10;0.90;;;;;23.10;99824.00;;;;2590005;22;20199;-59
2023/09/23 03:14:40;;;;;;;1.10;0.70;;;;;23.10;99827.00;;;;2587424;22;20306;-58
2023/09/23 03:15:48;;;;;;;1.10;0.90;;;;;23.10;99831.00;;;;2590045;22;20215;-58
2023/09/23 03:16:53;;;;;;;1.35;0.77;;;;;23.10;99820.00;;;;2577801;22;20222;-59
2023/09/23 03:17:54;;;;;;;1.52;1.25;;;;;23.10;99834.00;;;;2586260;22;20192;-59
2023/09/23 03:19:09;;;;;;;1.43;0.90;;;;;23.10;99828.00;;;;2588798;22;20252;-59
2023/09/23 03:20:11;;;;;;;1.25;0.90;;;;;23.10;99833.00;;;;2587605;22;20195;-58
2023/09/23 03:21:11;;;;;;;1.30;0.85;;;;;23.10;99823.00;;;;2575915;22;20243;-58
2023/09/23 03:22:13;;;;;;;1.10;0.90;;;;;23.10;99826.00;;;;2589932;22;20240;-59
2023/09/23 03:23:13;;;;;;;0.85;0.70;;;;;23.10;99829.00;;;;2587688;22;20198;-58
2023/09/23 03:24:15;;;;;;;1.20;0.70;;;;;23.10;99822.00;;;;2589087;22;20184;-59
2023/09/23 03:25:17;;;;;;;1.20;0.80;;;;;23.10;99824.00;;;;2588684;22;20196;-57
2023/09/23 03:26:18;;;;;;;1.40;0.95;;;;;23.10;99830.00;;;;2575550;22;20199;-59
2023/09/23 03:27:18;;;;;;;1.20;0.80;;;;;23.10;99827.00;;;;2575673;22;20192;-59
2023/09/23 03:28:19;;;;;;;0.97;0.67;;;;;23.10;99834.00;;;;2576182;22;20674;-58
2023/09/23 03:29:20;;;;;;;1.50;1.03;;;;;23.10;99830.00;;;;2589068;22;20266;-58
2023/09/23 03:30:20;;;;;;;1.42;1.02;;;;;23.10;99831.00;;;;2589217;22;20191;-58
2023/09/23 03:31:21;;;;;;;0.90;0.70;;;;;23.10;99829.00;;;;2574475;22;20200;-59
2023/09/23 03:32:23;;;;;;;0.93;0.80;;;;;23.10;99837.00;;;;2590415;22;20195;-58
2023/09/23 03:33:24;;;;;;;1.20;0.60;;;;;23.10;99839.00;;;;2589674;22;20287;-59
2023/09/23 03:34:26;;;;;;;1.00;0.73;;;;;23.10;99839.00;;;;2590020;22;20203;-58
2023/09/23 03:35:28;;;;;;;1.73;0.80;;;;;23.10;99833.00;;;;2589689;22;20302;-59
2023/09/23 03:36:31;;;;;;;1.15;0.77;;;;;23.10;99827.00;;;;2575869;22;20512;-59
2023/09/23 03:37:31;;;;;;;1.00;0.80;;;;;23.10;99840.00;;;;2585377;22;20609;-58
2023/09/23 03:38:34;;;;;;;1.10;0.80;;;;;23.10;99835.00;;;;2585429;22;20274;-58
2023/09/23 03:39:34;;;;;;;0.93;0.63;;;;;23.10;99830.00;;;;2584906;22;20200;-59
2023/09/23 03:40:35;;;;;;;1.00;0.80;;;;;23.10;99839.00;;;;2587480;22;20206;-58
2023/09/23 03:41:37;;;;;;;1.73;1.00;;;;;23.10;99839.00;;;;2570088;22;20249;-59
2023/09/23 03:42:37;;;;;;;1.15;0.80;;;;;23.10;99843.00;;;;2589873;22;20206;-59
2023/09/23 03:43:39;;;;;;;1.10;0.70;;;;;23.10;99832.00;;;;2583559;22;20192;-58
2023/09/23 03:44:39;;;;;;;1.95;1.00;;;;;23.10;99829.00;;;;2584199;22;20259;-59
2023/09/23 03:45:40;;;;;;;0.93;0.80;;;;;23.10;99835.00;;;;2585336;22;20200;-59
2023/09/23 03:46:42;;;;;;;0.97;0.70;;;;;23.10;99830.00;;;;2572908;22;20215;-58
2023/09/23 03:47:42;;;;;;;1.27;0.95;;;;;23.10;99840.00;;;;2574373;22;20192;-58
2023/09/23 03:48:46;;;;;;;1.00;0.80;;;;;23.10;99834.00;;;;2586204;22;20218;-59
2023/09/23 03:49:47;;;;;;;0.80;0.70;;;;;23.10;99836.00;;;;2588114;22;20204;-59
2023/09/23 03:50:53;;;;;;;1.37;1.00;;;;;23.10;99834.00;;;;2590637;22;20684;-59
2023/09/23 03:51:53;;;;;;;1.30;0.88;;;;;23.00;99826.00;;;;2574244;22;20199;-59
2023/09/23 03:52:54;;;;;;;1.13;0.97;;;;;23.10;99829.00;;;;2589734;22;20222;-59
2023/09/23 03:53:54;;;;;;;1.10;0.70;;;;;23.10;99857.00;;;;2586844;22;20673;-58
2023/09/23 03:54:55;;;;;;;0.97;0.73;;;;;23.10;99836.00;;;;2589544;22;20631;-58
2023/09/23 03:55:55;;;;;;;1.30;0.83;;;;;23.10;99845.00;;;;2589525;22;20677;-59
2023/09/23 03:56:57;;;;;;;1.10;0.80;;;;;23.10;99851.00;;;;2574506;22;20191;-58
2023/09/23 03:57:57;;;;;;;0.95;0.75;;;;;23.10;99843.00;;;;2601685;22;20186;-58
2023/09/23 03:58:57;;;;;;;1.20;1.00;;;;;23.10;99849.00;;;;2574344;22;20256;-59
2023/09/23 03:59:58;;;;;;;1.30;0.90;;;;;23.10;99843.00;;;;2588040;22;20290;-59
2023/09/23 04:01:05;;;;;;;1.40;0.73;;;;;23.10;99839.00;;;;2581293;22;20192;-58
2023/09/23 04:02:06;;;;;;;0.82;0.70;;;;;23.10;99838.00;;;;2573685;22;20549;-63
2023/09/23 04:03:06;;;;;;;1.17;0.90;;;;;23.10;99846.00;;;;2584718;22;20191;-59
2023/09/23 04:04:10;;;;;;;1.07;0.80;;;;;23.10;99846.00;;;;2589062;22;20512;-62
2023/09/23 04:05:10;;;;;;;0.90;0.70;;;;;23.10;99842.00;;;;2588954;22;20196;-59
2023/09/23 04:06:11;;;;;;;1.10;0.80;;;;;23.10;99845.00;;;;2576376;22;20202;-58
2023/09/23 04:07:15;;;;;;;1.30;0.90;;;;;23.10;99857.00;;;;2575752;22;20222;-59
2023/09/23 04:08:16;;;;;;;1.17;0.75;;;;;23.10;99852.00;;;;2577129;22;20940;-59
2023/09/23 04:09:16;;;;;;;1.10;0.83;;;;;23.10;99848.00;;;;2588690;22;20276;-58
2023/09/23 04:10:23;;;;;;;1.20;0.70;;;;;23.10;99856.00;;;;2586911;22;20214;-59
2023/09/23 04:11:23;;;;;;;1.20;0.90;;;;;23.10;99863.00;;;;2575005;22;20191;-58
2023/09/23 04:12:24;;;;;;;2.40;0.90;;;;;23.10;99851.00;;;;2588861;22;20230;-59
2023/09/23 04:13:25;;;;;;;1.30;0.93;;;;;23.10;99855.00;;;;2590266;22;20198;-59
2023/09/23 04:14:29;;;;;;;1.05;0.90;;;;;23.10;99859.00;;;;2588811;22;20199;-59
2023/09/23 04:15:30;;;;;;;1.20;1.10;;;;;23.10;99867.00;;;;2589974;22;20203;-60
2023/09/23 04:16:30;;;;;;;1.00;0.77;;;;;23.10;99934.00;;;;2583884;22;20429;-60
2023/09/23 04:17:31;;;;;;;1.07;0.73;;;;;23.10;99855.00;;;;2587652;22;20825;-59
2023/09/23 04:18:31;;;;;;;1.17;0.73;;;;;23.10;99857.00;;;;2589011;22;20198;-58
2023/09/23 04:19:31;;;;;;;1.13;0.80;;;;;23.10;99872.00;;;;2581529;22;20249;-57
2023/09/23 04:20:32;;;;;;;1.50;0.90;;;;;23.10;99859.00;;;;2586323;22;20526;-58
2023/09/23 04:21:32;;;;;;;1.00;0.70;;;;;23.10;99867.00;;;;2580030;22;20202;-58
2023/09/23 04:22:32;;;;;;;0.90;0.60;;;;;23.10;99871.00;;;;2602115;22;20192;-59
2023/09/23 04:23:33;;;;;;;1.47;0.80;;;;;23.10;99859.00;;;;2587863;22;20196;-59
2023/09/23 04:24:33;;;;;;;1.20;0.90;;;;;23.10;99869.00;;;;2589251;22;20654;-58
2023/09/23 04:25:34;;;;;;;1.30;0.80;;;;;23.10;99864.00;;;;2588157;22;20252;-58
2023/09/23 04:26:34;;;;;;;1.00;0.70;;;;;23.10;99913.00;;;;2580789;22;20216;-58
2023/09/23 04:27:38;;;;;;;0.80;0.63;;;;;23.10;99866.00;;;;2603100;22;20617;-58
2023/09/23 04:28:39;;;;;;;1.08;0.60;;;;;23.10;99865.00;;;;2594587;22;20214;-60
2023/09/23 04:29:39;;;;;;;1.10;0.90;;;;;23.10;99860.00;;;;2589500;22;20194;-60
2023/09/23 04:30:39;;;;;;;1.00;0.70;;;;;23.10;99866.00;;;;2590229;22;20196;-59
2023/09/23 04:31:40;;;;;;;0.97;0.80;;;;;23.10;99882.00;;;;2582883;22;20190;-60
2023/09/23 04:32:40;;;;;;;1.10;0.60;;;;;23.10;99872.00;;;;2602564;22;20194;-57
2023/09/23 04:33:41;;;;;;;0.90;0.60;;;;;23.10;99875.00;;;;2595627;22;20192;-59
2023/09/23 04:34:41;;;;;;;1.07;0.70;;;;;23.10;99880.00;;;;2591305;22;20188;-59
2023/09/23 04:35:42;;;;;;;1.00;0.70;;;;;23.10;99880.00;;;;2590980;22;20198;-59
2023/09/23 04:36:44;;;;;;;1.00;0.77;;;;;23.10;99878.00;;;;2583535;22;20633;-59
2023/09/23 04:37:45;;;;;;;1.02;0.80;;;;;23.10;99878.00;;;;2597152;22;20195;-57
2023/09/23 04:38:45;;;;;;;0.80;0.60;;;;;23.10;99879.00;;;;2591740;22;20198;-58
2023/09/23 04:39:46;;;;;;;1.03;0.80;;;;;23.10;99735.00;;;;2589779;22;20703;-58
2023/09/23 04:40:46;;;;;;;1.77;1.00;;;;;23.10;99883.00;;;;2589889;22;20980;-58
2023/09/23 04:41:47;;;;;;;1.30;0.80;;;;;23.10;99877.00;;;;2575661;22;20233;-58
2023/09/23 04:42:50;;;;;;;1.47;1.00;;;;;23.10;99881.00;;;;2598745;22;20202;-58
2023/09/23 04:43:50;;;;;;;1.17;0.80;;;;;23.10;99887.00;;;;2594639;22;21103;-59
2023/09/23 04:44:51;;;;;;;1.43;0.70;;;;;23.10;99887.00;;;;2589912;22;20191;-57
2023/09/23 04:45:51;;;;;;;1.30;0.70;;;;;23.10;99881.00;;;;2583372;22;20196;-58
2023/09/23 04:46:51;;;;;;;1.27;0.70;;;;;23.00;99882.00;;;;2585062;22;20267;-58
2023/09/23 04:47:52;;;;;;;1.93;0.70;;;;;23.00;99889.00;;;;2598616;22;20183;-59
2023/09/23 04:48:52;;;;;;;1.20;0.80;;;;;23.00;99892.00;;;;2592996;22;20183;-58
2023/09/23 04:49:54;;;;;;;1.20;0.80;;;;;23.10;99886.00;;;;2589185;22;20207;-59
2023/09/23 04:50:55;;;;;;;0.90;0.57;;;;;23.10;99884.00;;;;2589570;22;20308;-58
2023/09/23 04:51:56;;;;;;;0.93;0.80;;;;;23.10;99889.00;;;;2575460;22;20607;-58
2023/09/23 04:52:56;;;;;;;1.13;0.77;;;;;23.10;99890.00;;;;2602398;22;20793;-58
2023/09/23 04:53:56;;;;;;;0.90;0.60;;;;;23.10;99897.00;;;;2592530;22;20193;-59
2023/09/23 04:54:57;;;;;;;1.00;0.63;;;;;23.10;99896.00;;;;2590387;22;20187;-58
2023/09/23 04:55:58;;;;;;;2.03;0.80;;;;;23.10;99897.00;;;;2590532;22;20187;-59
2023/09/23 04:56:58;;;;;;;0.80;0.60;;;;;23.10;99891.00;;;;2585434;22;20202;-59
2023/09/23 04:57:59;;;;;;;1.10;0.77;;;;;23.10;99895.00;;;;2590042;22;20198;-59
2023/09/23 04:58:59;;;;;;;1.37;0.73;;;;;23.00;99897.00;;;;2565594;22;20566;-59
2023/09/23 05:00:00;;;;;;;1.30;0.80;;;;;23.10;99907.00;;;;2590025;22;20196;-59
2023/09/23 05:01:00;;;;;;;1.03;0.80;;;;;23.00;99906.00;;;;2591319;22;20264;-59
2023/09/23 05:02:01;;;;;;;1.40;0.83;;;;;23.10;99907.00;;;;2575593;22;20665;-60
2023/09/23 05:03:01;;;;;;;1.00;0.70;;;;;23.10;99905.00;;;;2590669;22;20794;-59
2023/09/23 05:04:03;;;;;;;0.97;0.60;;;;;23.00;99903.00;;;;2590530;22;20210;-59
2023/09/23 05:05:03;;;;;;;1.30;0.57;;;;;23.00;99902.00;;;;2590735;22;20540;-59
2023/09/23 05:06:05;;;;;;;0.90;0.63;;;;;23.10;99908.00;;;;2590824;22;20188;-60
2023/09/23 05:07:06;;;;;;;1.33;0.90;;;;;23.00;99967.00;;;;2576397;22;20195;-59